sensor_id;sensor_type;location;lat;lon;timestamp;P1;durP1;ratioP1;P2;durP2;ratioP2
24547;SDS011;12713;51.624;4.924;2022-09-21T00:00:52;11.43;;;7.05;;
24547;SDS011;12713;51.624;4.924;2022-09-21T00:03:19;14.77;;;6.07;;
24547;SDS011;12713;51.624;4.924;2022-09-21T00:05:45;10.10;;;5.47;;
24547;SDS011;12713;51.624;4.924;2022-09-21T00:08:11;7.53;;;5.63;;
24547;SDS011;12713;51.624;4.924;2022-09-21T00:10:38;10.77;;;6.03;;
24547;SDS011;12713;51.624;4.924;2022-09-21T00:13:04;9.65;;;5.50;;
24547;SDS011;12713;51.624;4.924;2022-09-21T00:15:32;12.95;;;6.20;;
24547;SDS011;12713;51.624;4.924;2022-09-21T00:17:58;13.82;;;6.40;;
24547;SDS011;12713;51.624;4.924;2022-09-21T00:20:25;9.40;;;5.85;;
24547;SDS011;12713;51.624;4.924;2022-09-21T00:22:51;14.35;;;6.45;;
24547;SDS011;12713;51.624;4.924;2022-09-21T00:25:18;6.90;;;5.70;;
24547;SDS011;12713;51.624;4.924;2022-09-21T00:27:45;6.50;;;5.10;;
24547;SDS011;12713;51.624;4.924;2022-09-21T00:30:15;9.27;;;5.30;;
24547;SDS011;12713;51.624;4.924;2022-09-21T00:32:41;14.18;;;6.50;;
24547;SDS011;12713;51.624;4.924;2022-09-21T00:35:07;8.48;;;6.10;;
24547;SDS011;12713;51.624;4.924;2022-09-21T00:37:33;8.77;;;5.32;;
24547;SDS011;12713;51.624;4.924;2022-09-21T00:40:00;9.68;;;5.15;;
24547;SDS011;12713;51.624;4.924;2022-09-21T00:42:27;7.60;;;5.05;;
24547;SDS011;12713;51.624;4.924;2022-09-21T00:44:54;7.25;;;5.15;;
24547;SDS011;12713;51.624;4.924;2022-09-21T00:47:21;10.98;;;5.65;;
24547;SDS011;12713;51.624;4.924;2022-09-21T00:49:49;15.90;;;5.35;;
24547;SDS011;12713;51.624;4.924;2022-09-21T00:52:17;9.32;;;5.57;;
24547;SDS011;12713;51.624;4.924;2022-09-21T00:54:45;7.50;;;5.10;;
24547;SDS011;12713;51.624;4.924;2022-09-21T00:57:12;10.90;;;6.15;;
24547;SDS011;12713;51.624;4.924;2022-09-21T00:59:39;9.13;;;4.55;;
24547;SDS011;12713;51.624;4.924;2022-09-21T01:02:07;6.55;;;5.00;;
24547;SDS011;12713;51.624;4.924;2022-09-21T01:04:34;7.13;;;5.53;;
24547;SDS011;12713;51.624;4.924;2022-09-21T01:07:01;13.40;;;5.95;;
24547;SDS011;12713;51.624;4.924;2022-09-21T01:09:29;8.52;;;5.55;;
24547;SDS011;12713;51.624;4.924;2022-09-21T01:29:59;6.07;;;4.80;;
24547;SDS011;12713;51.624;4.924;2022-09-21T01:32:44;7.13;;;4.80;;
24547;SDS011;12713;51.624;4.924;2022-09-21T01:35:23;11.38;;;5.82;;
24547;SDS011;12713;51.624;4.924;2022-09-21T01:40:22;7.05;;;5.20;;
24547;SDS011;12713;51.624;4.924;2022-09-21T01:42:49;6.43;;;5.40;;
24547;SDS011;12713;51.624;4.924;2022-09-21T01:45:17;9.25;;;5.05;;
24547;SDS011;12713;51.624;4.924;2022-09-21T01:47:45;9.90;;;5.70;;
24547;SDS011;12713;51.624;4.924;2022-09-21T01:50:11;7.45;;;5.80;;
24547;SDS011;12713;51.624;4.924;2022-09-21T01:52:43;11.35;;;6.13;;
24547;SDS011;12713;51.624;4.924;2022-09-21T01:55:12;12.15;;;6.18;;
24547;SDS011;12713;51.624;4.924;2022-09-21T02:00:15;8.55;;;5.65;;
24547;SDS011;12713;51.624;4.924;2022-09-21T02:02:49;12.88;;;6.78;;
24547;SDS011;12713;51.624;4.924;2022-09-21T02:05:16;12.25;;;5.63;;
24547;SDS011;12713;51.624;4.924;2022-09-21T02:07:43;9.30;;;4.93;;
24547;SDS011;12713;51.624;4.924;2022-09-21T02:10:11;8.95;;;6.38;;
24547;SDS011;12713;51.624;4.924;2022-09-21T02:12:38;8.88;;;6.15;;
24547;SDS011;12713;51.624;4.924;2022-09-21T02:15:04;9.45;;;5.90;;
24547;SDS011;12713;51.624;4.924;2022-09-21T02:22:34;15.50;;;6.65;;
24547;SDS011;12713;51.624;4.924;2022-09-21T02:25:20;8.55;;;5.72;;
24547;SDS011;12713;51.624;4.924;2022-09-21T02:30:18;8.88;;;5.38;;
24547;SDS011;12713;51.624;4.924;2022-09-21T02:38:10;12.52;;;6.10;;
24547;SDS011;12713;51.624;4.924;2022-09-21T02:43:30;10.10;;;5.78;;
24547;SDS011;12713;51.624;4.924;2022-09-21T02:46:01;17.65;;;6.55;;
24547;SDS011;12713;51.624;4.924;2022-09-21T02:48:34;11.55;;;6.53;;
24547;SDS011;12713;51.624;4.924;2022-09-21T02:51:12;9.35;;;6.65;;
24547;SDS011;12713;51.624;4.924;2022-09-21T02:53:38;10.85;;;5.05;;
24547;SDS011;12713;51.624;4.924;2022-09-21T02:56:06;9.63;;;5.43;;
24547;SDS011;12713;51.624;4.924;2022-09-21T02:58:34;10.57;;;5.63;;
24547;SDS011;12713;51.624;4.924;2022-09-21T03:01:02;9.20;;;6.18;;
24547;SDS011;12713;51.624;4.924;2022-09-21T03:03:31;9.57;;;5.45;;
24547;SDS011;12713;51.624;4.924;2022-09-21T03:05:57;6.88;;;5.85;;
24547;SDS011;12713;51.624;4.924;2022-09-21T03:08:24;10.15;;;5.95;;
24547;SDS011;12713;51.624;4.924;2022-09-21T03:10:50;17.25;;;6.40;;
24547;SDS011;12713;51.624;4.924;2022-09-21T03:13:16;6.95;;;5.20;;
24547;SDS011;12713;51.624;4.924;2022-09-21T03:15:42;8.32;;;5.82;;
24547;SDS011;12713;51.624;4.924;2022-09-21T03:18:09;8.88;;;6.22;;
24547;SDS011;12713;51.624;4.924;2022-09-21T03:20:36;9.45;;;6.40;;
24547;SDS011;12713;51.624;4.924;2022-09-21T03:23:02;7.03;;;5.68;;
24547;SDS011;12713;51.624;4.924;2022-09-21T03:25:29;8.43;;;6.03;;
24547;SDS011;12713;51.624;4.924;2022-09-21T03:27:55;7.30;;;5.53;;
24547;SDS011;12713;51.624;4.924;2022-09-21T03:30:21;9.02;;;5.50;;
24547;SDS011;12713;51.624;4.924;2022-09-21T03:32:51;10.10;;;6.20;;
24547;SDS011;12713;51.624;4.924;2022-09-21T03:35:18;9.57;;;6.28;;
24547;SDS011;12713;51.624;4.924;2022-09-21T03:37:44;11.40;;;6.10;;
24547;SDS011;12713;51.624;4.924;2022-09-21T03:40:10;9.40;;;5.53;;
24547;SDS011;12713;51.624;4.924;2022-09-21T03:42:37;7.35;;;5.53;;
24547;SDS011;12713;51.624;4.924;2022-09-21T03:45:03;8.82;;;6.22;;
24547;SDS011;12713;51.624;4.924;2022-09-21T03:47:30;11.90;;;6.53;;
24547;SDS011;12713;51.624;4.924;2022-09-21T03:49:56;13.38;;;7.10;;
24547;SDS011;12713;51.624;4.924;2022-09-21T03:52:22;9.30;;;6.28;;
24547;SDS011;12713;51.624;4.924;2022-09-21T03:54:48;11.82;;;6.22;;
24547;SDS011;12713;51.624;4.924;2022-09-21T03:57:14;8.85;;;5.88;;
24547;SDS011;12713;51.624;4.924;2022-09-21T03:59:40;11.98;;;6.55;;
24547;SDS011;12713;51.624;4.924;2022-09-21T04:02:06;8.93;;;6.13;;
24547;SDS011;12713;51.624;4.924;2022-09-21T04:04:32;14.18;;;6.90;;
24547;SDS011;12713;51.624;4.924;2022-09-21T04:06:58;15.40;;;7.68;;
24547;SDS011;12713;51.624;4.924;2022-09-21T04:09:24;11.02;;;6.57;;
24547;SDS011;12713;51.624;4.924;2022-09-21T04:11:50;13.90;;;6.57;;
24547;SDS011;12713;51.624;4.924;2022-09-21T04:14:17;11.45;;;5.82;;
24547;SDS011;12713;51.624;4.924;2022-09-21T04:16:44;7.28;;;5.88;;
24547;SDS011;12713;51.624;4.924;2022-09-21T04:19:10;7.72;;;5.47;;
24547;SDS011;12713;51.624;4.924;2022-09-21T04:21:36;8.40;;;6.10;;
24547;SDS011;12713;51.624;4.924;2022-09-21T04:24:02;11.32;;;5.57;;
24547;SDS011;12713;51.624;4.924;2022-09-21T04:26:30;9.77;;;5.47;;
24547;SDS011;12713;51.624;4.924;2022-09-21T04:28:56;7.15;;;5.50;;
24547;SDS011;12713;51.624;4.924;2022-09-21T04:31:23;8.98;;;6.25;;
24547;SDS011;12713;51.624;4.924;2022-09-21T04:33:49;8.00;;;5.25;;
24547;SDS011;12713;51.624;4.924;2022-09-21T04:36:16;7.70;;;5.15;;
24547;SDS011;12713;51.624;4.924;2022-09-21T04:38:43;9.40;;;5.40;;
24547;SDS011;12713;51.624;4.924;2022-09-21T04:41:09;8.77;;;6.00;;
24547;SDS011;12713;51.624;4.924;2022-09-21T04:43:35;10.98;;;6.07;;
24547;SDS011;12713;51.624;4.924;2022-09-21T04:46:08;7.22;;;5.25;;
24547;SDS011;12713;51.624;4.924;2022-09-21T04:48:34;10.65;;;5.47;;
24547;SDS011;12713;51.624;4.924;2022-09-21T04:51:04;8.82;;;6.30;;
24547;SDS011;12713;51.624;4.924;2022-09-21T04:53:33;11.23;;;5.67;;
24547;SDS011;12713;51.624;4.924;2022-09-21T04:56:01;7.38;;;5.45;;
24547;SDS011;12713;51.624;4.924;2022-09-21T04:58:27;9.65;;;5.32;;
24547;SDS011;12713;51.624;4.924;2022-09-21T05:00:53;10.57;;;5.65;;
24547;SDS011;12713;51.624;4.924;2022-09-21T05:03:20;9.20;;;5.22;;
24547;SDS011;12713;51.624;4.924;2022-09-21T05:05:47;10.40;;;5.97;;
24547;SDS011;12713;51.624;4.924;2022-09-21T05:08:13;7.95;;;5.63;;
24547;SDS011;12713;51.624;4.924;2022-09-21T05:10:39;11.82;;;5.85;;
24547;SDS011;12713;51.624;4.924;2022-09-21T05:13:05;10.75;;;5.63;;
24547;SDS011;12713;51.624;4.924;2022-09-21T05:15:31;9.45;;;5.88;;
24547;SDS011;12713;51.624;4.924;2022-09-21T05:17:57;12.75;;;6.05;;
24547;SDS011;12713;51.624;4.924;2022-09-21T05:20:23;10.38;;;6.43;;
24547;SDS011;12713;51.624;4.924;2022-09-21T05:22:49;8.43;;;5.18;;
24547;SDS011;12713;51.624;4.924;2022-09-21T05:25:15;9.20;;;5.97;;
24547;SDS011;12713;51.624;4.924;2022-09-21T05:27:41;8.55;;;5.32;;
24547;SDS011;12713;51.624;4.924;2022-09-21T05:30:08;14.60;;;6.70;;
24547;SDS011;12713;51.624;4.924;2022-09-21T05:37:53;7.78;;;5.72;;
24547;SDS011;12713;51.624;4.924;2022-09-21T05:40:21;10.38;;;6.07;;
24547;SDS011;12713;51.624;4.924;2022-09-21T05:42:47;9.57;;;5.68;;
24547;SDS011;12713;51.624;4.924;2022-09-21T05:45:16;11.02;;;5.50;;
24547;SDS011;12713;51.624;4.924;2022-09-21T05:50:16;9.60;;;5.40;;
24547;SDS011;12713;51.624;4.924;2022-09-21T05:52:51;13.02;;;6.35;;
24547;SDS011;12713;51.624;4.924;2022-09-21T06:00:23;11.60;;;5.95;;
24547;SDS011;12713;51.624;4.924;2022-09-21T06:05:34;12.40;;;5.68;;
24547;SDS011;12713;51.624;4.924;2022-09-21T06:08:00;19.17;;;6.63;;
24547;SDS011;12713;51.624;4.924;2022-09-21T06:10:27;13.88;;;7.07;;
24547;SDS011;12713;51.624;4.924;2022-09-21T06:12:57;9.50;;;6.28;;
24547;SDS011;12713;51.624;4.924;2022-09-21T06:15:23;12.90;;;5.97;;
24547;SDS011;12713;51.624;4.924;2022-09-21T06:17:49;8.75;;;6.10;;
24547;SDS011;12713;51.624;4.924;2022-09-21T06:20:15;13.55;;;5.45;;
24547;SDS011;12713;51.624;4.924;2022-09-21T06:22:41;8.90;;;5.93;;
24547;SDS011;12713;51.624;4.924;2022-09-21T06:25:07;11.45;;;6.47;;
24547;SDS011;12713;51.624;4.924;2022-09-21T06:27:33;10.82;;;5.70;;
24547;SDS011;12713;51.624;4.924;2022-09-21T06:29:59;13.25;;;6.20;;
24547;SDS011;12713;51.624;4.924;2022-09-21T06:32:25;14.35;;;6.82;;
24547;SDS011;12713;51.624;4.924;2022-09-21T06:34:51;9.23;;;6.38;;
24547;SDS011;12713;51.624;4.924;2022-09-21T06:37:18;12.23;;;7.07;;
24547;SDS011;12713;51.624;4.924;2022-09-21T06:39:43;19.27;;;9.18;;
24547;SDS011;12713;51.624;4.924;2022-09-21T06:42:09;20.52;;;8.95;;
24547;SDS011;12713;51.624;4.924;2022-09-21T06:44:35;18.73;;;9.77;;
24547;SDS011;12713;51.624;4.924;2022-09-21T06:47:02;18.67;;;7.68;;
24547;SDS011;12713;51.624;4.924;2022-09-21T06:49:28;8.98;;;6.03;;
24547;SDS011;12713;51.624;4.924;2022-09-21T06:51:54;12.15;;;6.32;;
24547;SDS011;12713;51.624;4.924;2022-09-21T06:54:20;22.55;;;11.60;;
24547;SDS011;12713;51.624;4.924;2022-09-21T06:56:46;18.15;;;10.73;;
24547;SDS011;12713;51.624;4.924;2022-09-21T06:59:12;22.92;;;11.25;;
24547;SDS011;12713;51.624;4.924;2022-09-21T07:01:38;22.23;;;11.18;;
24547;SDS011;12713;51.624;4.924;2022-09-21T07:04:04;27.35;;;11.68;;
24547;SDS011;12713;51.624;4.924;2022-09-21T07:06:33;24.17;;;10.95;;
24547;SDS011;12713;51.624;4.924;2022-09-21T07:08:59;24.08;;;12.85;;
24547;SDS011;12713;51.624;4.924;2022-09-21T07:11:26;21.13;;;11.75;;
24547;SDS011;12713;51.624;4.924;2022-09-21T07:13:52;16.95;;;10.43;;
24547;SDS011;12713;51.624;4.924;2022-09-21T07:16:19;17.27;;;10.45;;
24547;SDS011;12713;51.624;4.924;2022-09-21T07:18:45;21.40;;;9.98;;
24547;SDS011;12713;51.624;4.924;2022-09-21T07:21:13;19.85;;;9.73;;
24547;SDS011;12713;51.624;4.924;2022-09-21T07:23:39;19.85;;;9.25;;
24547;SDS011;12713;51.624;4.924;2022-09-21T07:26:06;14.45;;;9.18;;
24547;SDS011;12713;51.624;4.924;2022-09-21T07:28:32;13.15;;;7.97;;
24547;SDS011;12713;51.624;4.924;2022-09-21T07:31:04;15.82;;;8.07;;
24547;SDS011;12713;51.624;4.924;2022-09-21T07:33:30;18.25;;;9.45;;
24547;SDS011;12713;51.624;4.924;2022-09-21T07:35:57;12.10;;;7.38;;
24547;SDS011;12713;51.624;4.924;2022-09-21T07:38:24;16.15;;;8.00;;
24547;SDS011;12713;51.624;4.924;2022-09-21T07:40:51;13.20;;;8.23;;
24547;SDS011;12713;51.624;4.924;2022-09-21T07:43:18;12.13;;;7.18;;
24547;SDS011;12713;51.624;4.924;2022-09-21T07:45:51;10.63;;;7.10;;
24547;SDS011;12713;51.624;4.924;2022-09-21T07:48:18;17.83;;;6.63;;
24547;SDS011;12713;51.624;4.924;2022-09-21T07:50:44;11.93;;;6.72;;
24547;SDS011;12713;51.624;4.924;2022-09-21T07:53:10;11.50;;;6.75;;
24547;SDS011;12713;51.624;4.924;2022-09-21T07:55:36;16.38;;;6.60;;
24547;SDS011;12713;51.624;4.924;2022-09-21T07:58:02;11.73;;;6.25;;
24547;SDS011;12713;51.624;4.924;2022-09-21T08:00:46;14.70;;;6.55;;
24547;SDS011;12713;51.624;4.924;2022-09-21T08:03:13;18.92;;;7.03;;
24547;SDS011;12713;51.624;4.924;2022-09-21T08:05:39;13.77;;;6.47;;
24547;SDS011;12713;51.624;4.924;2022-09-21T08:08:05;11.10;;;5.82;;
24547;SDS011;12713;51.624;4.924;2022-09-21T08:10:31;15.70;;;6.70;;
24547;SDS011;12713;51.624;4.924;2022-09-21T08:12:57;16.02;;;7.43;;
24547;SDS011;12713;51.624;4.924;2022-09-21T08:15:26;11.13;;;6.32;;
24547;SDS011;12713;51.624;4.924;2022-09-21T08:17:53;11.65;;;6.35;;
24547;SDS011;12713;51.624;4.924;2022-09-21T08:20:20;18.10;;;6.65;;
24547;SDS011;12713;51.624;4.924;2022-09-21T08:22:47;10.68;;;5.88;;
24547;SDS011;12713;51.624;4.924;2022-09-21T08:25:13;13.05;;;6.07;;
24547;SDS011;12713;51.624;4.924;2022-09-21T08:27:39;13.57;;;5.75;;
24547;SDS011;12713;51.624;4.924;2022-09-21T08:30:06;10.55;;;5.40;;
24547;SDS011;12713;51.624;4.924;2022-09-21T08:32:33;9.68;;;4.50;;
24547;SDS011;12713;51.624;4.924;2022-09-21T08:34:59;11.05;;;4.13;;
24547;SDS011;12713;51.624;4.924;2022-09-21T08:37:28;13.10;;;4.05;;
24547;SDS011;12713;51.624;4.924;2022-09-21T08:39:55;7.88;;;3.40;;
24547;SDS011;12713;51.624;4.924;2022-09-21T08:42:32;9.20;;;3.42;;
24547;SDS011;12713;51.624;4.924;2022-09-21T08:45:02;8.93;;;3.40;;
24547;SDS011;12713;51.624;4.924;2022-09-21T08:47:37;7.47;;;3.50;;
24547;SDS011;12713;51.624;4.924;2022-09-21T08:50:12;7.68;;;2.90;;
24547;SDS011;12713;51.624;4.924;2022-09-21T08:52:44;9.35;;;2.72;;
24547;SDS011;12713;51.624;4.924;2022-09-21T08:55:17;6.65;;;2.25;;
24547;SDS011;12713;51.624;4.924;2022-09-21T08:57:44;11.68;;;2.63;;
24547;SDS011;12713;51.624;4.924;2022-09-21T09:00:14;3.92;;;1.48;;
24547;SDS011;12713;51.624;4.924;2022-09-21T09:10:43;5.93;;;2.10;;
24547;SDS011;12713;51.624;4.924;2022-09-21T09:13:19;6.40;;;1.60;;
24547;SDS011;12713;51.624;4.924;2022-09-21T09:16:05;7.10;;;1.33;;
24547;SDS011;12713;51.624;4.924;2022-09-21T09:21:08;5.43;;;1.77;;
24547;SDS011;12713;51.624;4.924;2022-09-21T09:26:24;8.00;;;1.77;;
24547;SDS011;12713;51.624;4.924;2022-09-21T09:29:03;6.00;;;1.40;;
24547;SDS011;12713;51.624;4.924;2022-09-21T09:31:32;3.42;;;1.48;;
24547;SDS011;12713;51.624;4.924;2022-09-21T09:34:06;7.13;;;1.80;;
24547;SDS011;12713;51.624;4.924;2022-09-21T09:36:34;6.75;;;1.63;;
24547;SDS011;12713;51.624;4.924;2022-09-21T09:45:35;8.40;;;1.27;;
24547;SDS011;12713;51.624;4.924;2022-09-21T09:50:56;4.00;;;1.50;;
24547;SDS011;12713;51.624;4.924;2022-09-21T09:53:23;8.80;;;1.58;;
24547;SDS011;12713;51.624;4.924;2022-09-21T09:55:56;6.43;;;1.58;;
24547;SDS011;12713;51.624;4.924;2022-09-21T10:01:03;5.85;;;1.73;;
24547;SDS011;12713;51.624;4.924;2022-09-21T10:03:30;7.22;;;2.00;;
24547;SDS011;12713;51.624;4.924;2022-09-21T10:05:56;7.28;;;1.35;;
24547;SDS011;12713;51.624;4.924;2022-09-21T10:08:42;4.15;;;1.70;;
24547;SDS011;12713;51.624;4.924;2022-09-21T10:11:14;7.47;;;2.15;;
24547;SDS011;12713;51.624;4.924;2022-09-21T10:13:41;8.65;;;1.77;;
24547;SDS011;12713;51.624;4.924;2022-09-21T10:18:44;3.38;;;1.25;;
24547;SDS011;12713;51.624;4.924;2022-09-21T10:21:16;4.88;;;1.25;;
24547;SDS011;12713;51.624;4.924;2022-09-21T10:23:47;4.40;;;1.42;;
24547;SDS011;12713;51.624;4.924;2022-09-21T10:26:15;4.60;;;1.50;;
24547;SDS011;12713;51.624;4.924;2022-09-21T10:34:40;8.25;;;1.85;;
24547;SDS011;12713;51.624;4.924;2022-09-21T10:43:17;8.90;;;2.42;;
24547;SDS011;12713;51.624;4.924;2022-09-21T10:49:22;4.60;;;1.33;;
24547;SDS011;12713;51.624;4.924;2022-09-21T10:51:55;5.95;;;1.55;;
24547;SDS011;12713;51.624;4.924;2022-09-21T10:54:39;7.47;;;1.00;;
24547;SDS011;12713;51.624;4.924;2022-09-21T10:57:17;3.33;;;1.23;;
24547;SDS011;12713;51.624;4.924;2022-09-21T10:59:44;3.80;;;1.00;;
24547;SDS011;12713;51.624;4.924;2022-09-21T11:05:18;3.55;;;1.25;;
24547;SDS011;12713;51.624;4.924;2022-09-21T11:20:47;3.42;;;0.90;;
24547;SDS011;12713;51.624;4.924;2022-09-21T11:37:22;7.78;;;1.30;;
24547;SDS011;12713;51.624;4.924;2022-09-21T11:42:30;5.75;;;1.30;;
24547;SDS011;12713;51.624;4.924;2022-09-21T11:45:01;3.75;;;1.13;;
24547;SDS011;12713;51.624;4.924;2022-09-21T11:58:16;4.85;;;0.85;;
24547;SDS011;12713;51.624;4.924;2022-09-21T12:00:51;12.35;;;1.40;;
24547;SDS011;12713;51.624;4.924;2022-09-21T12:21:53;4.20;;;0.95;;
24547;SDS011;12713;51.624;4.924;2022-09-21T12:24:33;3.38;;;0.98;;
24547;SDS011;12713;51.624;4.924;2022-09-21T12:27:05;3.45;;;0.90;;
24547;SDS011;12713;51.624;4.924;2022-09-21T12:29:42;2.75;;;0.90;;
24547;SDS011;12713;51.624;4.924;2022-09-21T12:35:03;3.88;;;1.15;;
24547;SDS011;12713;51.624;4.924;2022-09-21T12:37:45;3.45;;;0.93;;
24547;SDS011;12713;51.624;4.924;2022-09-21T12:40:17;3.92;;;0.98;;
24547;SDS011;12713;51.624;4.924;2022-09-21T12:42:50;4.18;;;0.90;;
24547;SDS011;12713;51.624;4.924;2022-09-21T12:45:21;5.13;;;1.17;;
24547;SDS011;12713;51.624;4.924;2022-09-21T12:50:34;3.05;;;1.00;;
24547;SDS011;12713;51.624;4.924;2022-09-21T12:53:05;7.68;;;1.50;;
24547;SDS011;12713;51.624;4.924;2022-09-21T12:58:29;4.70;;;1.20;;
24547;SDS011;12713;51.624;4.924;2022-09-21T13:06:25;3.03;;;0.80;;
24547;SDS011;12713;51.624;4.924;2022-09-21T13:09:02;4.28;;;1.02;;
24547;SDS011;12713;51.624;4.924;2022-09-21T13:11:32;3.30;;;1.15;;
24547;SDS011;12713;51.624;4.924;2022-09-21T13:14:01;3.63;;;1.00;;
24547;SDS011;12713;51.624;4.924;2022-09-21T13:16:33;2.92;;;1.02;;
24547;SDS011;12713;51.624;4.924;2022-09-21T13:19:03;5.30;;;1.13;;
24547;SDS011;12713;51.624;4.924;2022-09-21T13:21:31;6.90;;;1.63;;
24547;SDS011;12713;51.624;4.924;2022-09-21T13:24:02;3.10;;;1.02;;
24547;SDS011;12713;51.624;4.924;2022-09-21T13:34:31;7.03;;;1.58;;
24547;SDS011;12713;51.624;4.924;2022-09-21T13:42:46;2.30;;;0.60;;
24547;SDS011;12713;51.624;4.924;2022-09-21T13:47:39;3.85;;;0.88;;
24547;SDS011;12713;51.624;4.924;2022-09-21T13:50:26;4.63;;;0.98;;
24547;SDS011;12713;51.624;4.924;2022-09-21T13:52:54;4.50;;;0.90;;
24547;SDS011;12713;51.624;4.924;2022-09-21T13:55:33;8.18;;;1.48;;
24547;SDS011;12713;51.624;4.924;2022-09-21T13:58:02;4.35;;;1.15;;
24547;SDS011;12713;51.624;4.924;2022-09-21T14:00:39;5.20;;;0.90;;
24547;SDS011;12713;51.624;4.924;2022-09-21T14:03:17;4.63;;;1.25;;
24547;SDS011;12713;51.624;4.924;2022-09-21T14:05:47;5.63;;;0.90;;
24547;SDS011;12713;51.624;4.924;2022-09-21T14:11:02;3.92;;;1.17;;
24547;SDS011;12713;51.624;4.924;2022-09-21T14:13:31;3.55;;;0.90;;
24547;SDS011;12713;51.624;4.924;2022-09-21T14:18:43;5.90;;;0.98;;
24547;SDS011;12713;51.624;4.924;2022-09-21T14:21:17;2.95;;;1.02;;
24547;SDS011;12713;51.624;4.924;2022-09-21T14:29:36;7.28;;;1.15;;
24547;SDS011;12713;51.624;4.924;2022-09-21T14:32:04;3.85;;;0.90;;
24547;SDS011;12713;51.624;4.924;2022-09-21T14:34:35;4.78;;;1.15;;
24547;SDS011;12713;51.624;4.924;2022-09-21T14:37:08;4.40;;;1.00;;
24547;SDS011;12713;51.624;4.924;2022-09-21T14:39:37;4.22;;;1.15;;
24547;SDS011;12713;51.624;4.924;2022-09-21T14:42:11;4.75;;;1.20;;
24547;SDS011;12713;51.624;4.924;2022-09-21T14:44:42;3.47;;;0.90;;
24547;SDS011;12713;51.624;4.924;2022-09-21T14:49:57;2.72;;;0.93;;
24547;SDS011;12713;51.624;4.924;2022-09-21T14:52:29;2.33;;;0.80;;
24547;SDS011;12713;51.624;4.924;2022-09-21T15:00:19;4.22;;;1.08;;
24547;SDS011;12713;51.624;4.924;2022-09-21T15:02:59;6.22;;;1.38;;
24547;SDS011;12713;51.624;4.924;2022-09-21T15:08:44;5.15;;;1.00;;
24547;SDS011;12713;51.624;4.924;2022-09-21T15:21:47;1.80;;;0.80;;
24547;SDS011;12713;51.624;4.924;2022-09-21T15:26:50;4.15;;;1.17;;
24547;SDS011;12713;51.624;4.924;2022-09-21T15:29:24;1.88;;;0.70;;
24547;SDS011;12713;51.624;4.924;2022-09-21T15:31:53;2.78;;;1.02;;
24547;SDS011;12713;51.624;4.924;2022-09-21T15:34:20;5.55;;;1.00;;
24547;SDS011;12713;51.624;4.924;2022-09-21T15:36:50;6.05;;;0.90;;
24547;SDS011;12713;51.624;4.924;2022-09-21T15:39:27;3.38;;;1.10;;
24547;SDS011;12713;51.624;4.924;2022-09-21T15:42:13;4.57;;;0.82;;
24547;SDS011;12713;51.624;4.924;2022-09-21T15:44:47;4.80;;;0.90;;
24547;SDS011;12713;51.624;4.924;2022-09-21T15:47:20;3.90;;;1.13;;
24547;SDS011;12713;51.624;4.924;2022-09-21T15:49:49;7.60;;;1.45;;
24547;SDS011;12713;51.624;4.924;2022-09-21T15:54:58;5.80;;;1.55;;
24547;SDS011;12713;51.624;4.924;2022-09-21T15:57:34;3.03;;;1.48;;
24547;SDS011;12713;51.624;4.924;2022-09-21T16:00:03;6.10;;;1.08;;
24547;SDS011;12713;51.624;4.924;2022-09-21T16:02:37;3.75;;;1.48;;
24547;SDS011;12713;51.624;4.924;2022-09-21T16:05:06;6.18;;;1.20;;
24547;SDS011;12713;51.624;4.924;2022-09-21T16:07:37;6.38;;;1.73;;
24547;SDS011;12713;51.624;4.924;2022-09-21T16:12:56;4.65;;;0.85;;
24547;SDS011;12713;51.624;4.924;2022-09-21T16:15:53;2.50;;;1.00;;
24547;SDS011;12713;51.624;4.924;2022-09-21T16:18:52;3.42;;;0.95;;
24547;SDS011;12713;51.624;4.924;2022-09-21T16:21:41;4.15;;;0.95;;
24547;SDS011;12713;51.624;4.924;2022-09-21T16:24:17;3.95;;;0.90;;
24547;SDS011;12713;51.624;4.924;2022-09-21T16:30:19;3.90;;;1.00;;
24547;SDS011;12713;51.624;4.924;2022-09-21T16:39:47;2.38;;;0.98;;
24547;SDS011;12713;51.624;4.924;2022-09-21T16:42:34;4.95;;;1.20;;
24547;SDS011;12713;51.624;4.924;2022-09-21T16:45:06;4.20;;;1.02;;
24547;SDS011;12713;51.624;4.924;2022-09-21T16:47:35;5.95;;;1.15;;
24547;SDS011;12713;51.624;4.924;2022-09-21T16:50:05;4.40;;;0.98;;
24547;SDS011;12713;51.624;4.924;2022-09-21T16:52:34;3.08;;;0.88;;
24547;SDS011;12713;51.624;4.924;2022-09-21T16:58:04;8.02;;;1.45;;
24547;SDS011;12713;51.624;4.924;2022-09-21T17:00:38;3.67;;;0.93;;
24547;SDS011;12713;51.624;4.924;2022-09-21T17:03:19;4.35;;;1.02;;
24547;SDS011;12713;51.624;4.924;2022-09-21T17:11:59;6.00;;;1.35;;
24547;SDS011;12713;51.624;4.924;2022-09-21T17:20:46;4.88;;;1.23;;
24547;SDS011;12713;51.624;4.924;2022-09-21T17:23:13;7.95;;;1.63;;
24547;SDS011;12713;51.624;4.924;2022-09-21T17:25:43;6.30;;;1.08;;
24547;SDS011;12713;51.624;4.924;2022-09-21T17:28:14;5.10;;;0.95;;
24547;SDS011;12713;51.624;4.924;2022-09-21T17:30:47;4.15;;;1.00;;
24547;SDS011;12713;51.624;4.924;2022-09-21T17:33:13;3.33;;;1.33;;
24547;SDS011;12713;51.624;4.924;2022-09-21T17:35:43;2.67;;;1.33;;
24547;SDS011;12713;51.624;4.924;2022-09-21T17:38:11;5.90;;;1.52;;
24547;SDS011;12713;51.624;4.924;2022-09-21T17:40:38;6.03;;;1.65;;
24547;SDS011;12713;51.624;4.924;2022-09-21T17:45:55;6.38;;;1.70;;
24547;SDS011;12713;51.624;4.924;2022-09-21T17:48:24;6.28;;;1.75;;
24547;SDS011;12713;51.624;4.924;2022-09-21T17:50:51;4.82;;;1.40;;
24547;SDS011;12713;51.624;4.924;2022-09-21T17:53:17;9.35;;;1.60;;
24547;SDS011;12713;51.624;4.924;2022-09-21T17:58:36;5.75;;;2.10;;
24547;SDS011;12713;51.624;4.924;2022-09-21T18:01:05;7.25;;;1.52;;
24547;SDS011;12713;51.624;4.924;2022-09-21T18:03:32;2.83;;;1.55;;
24547;SDS011;12713;51.624;4.924;2022-09-21T18:06:05;4.93;;;1.55;;
24547;SDS011;12713;51.624;4.924;2022-09-21T18:08:32;6.32;;;2.08;;
24547;SDS011;12713;51.624;4.924;2022-09-21T18:11:05;4.75;;;1.88;;
24547;SDS011;12713;51.624;4.924;2022-09-21T18:19:01;3.38;;;1.80;;
24547;SDS011;12713;51.624;4.924;2022-09-21T18:21:28;4.60;;;1.83;;
24547;SDS011;12713;51.624;4.924;2022-09-21T18:24:06;5.15;;;1.80;;
24547;SDS011;12713;51.624;4.924;2022-09-21T18:26:36;5.20;;;2.08;;
24547;SDS011;12713;51.624;4.924;2022-09-21T18:29:03;6.00;;;2.08;;
24547;SDS011;12713;51.624;4.924;2022-09-21T18:34:27;7.07;;;2.30;;
24547;SDS011;12713;51.624;4.924;2022-09-21T18:37:14;6.55;;;2.33;;
24547;SDS011;12713;51.624;4.924;2022-09-21T18:39:47;3.13;;;1.98;;
24547;SDS011;12713;51.624;4.924;2022-09-21T18:42:21;6.18;;;2.58;;
24547;SDS011;12713;51.624;4.924;2022-09-21T18:44:54;6.07;;;2.38;;
24547;SDS011;12713;51.624;4.924;2022-09-21T18:47:25;7.15;;;3.03;;
24547;SDS011;12713;51.624;4.924;2022-09-21T18:54:56;5.28;;;2.50;;
24547;SDS011;12713;51.624;4.924;2022-09-21T18:57:23;5.65;;;3.33;;
24547;SDS011;12713;51.624;4.924;2022-09-21T18:59:49;5.80;;;3.30;;
24547;SDS011;12713;51.624;4.924;2022-09-21T19:02:18;5.15;;;2.80;;
24547;SDS011;12713;51.624;4.924;2022-09-21T19:04:54;4.53;;;2.90;;
24547;SDS011;12713;51.624;4.924;2022-09-21T19:30:48;11.20;;;5.90;;
24547;SDS011;12713;51.624;4.924;2022-09-21T19:33:26;12.18;;;6.53;;
24547;SDS011;12713;51.624;4.924;2022-09-21T19:35:54;10.13;;;6.45;;
24547;SDS011;12713;51.624;4.924;2022-09-21T19:38:21;10.27;;;7.57;;
24547;SDS011;12713;51.624;4.924;2022-09-21T19:40:49;14.93;;;7.55;;
24547;SDS011;12713;51.624;4.924;2022-09-21T19:52:17;11.70;;;8.57;;
24547;SDS011;12713;51.624;4.924;2022-09-21T19:54:55;10.57;;;8.40;;
24547;SDS011;12713;51.624;4.924;2022-09-21T19:58:02;13.68;;;8.15;;
24547;SDS011;12713;51.624;4.924;2022-09-21T20:00:47;11.27;;;7.68;;
24547;SDS011;12713;51.624;4.924;2022-09-21T20:03:39;12.55;;;8.13;;
24547;SDS011;12713;51.624;4.924;2022-09-21T20:06:21;22.48;;;8.63;;